createdAt,value
2024-05-09T00:01:04.976Z,10.90
2024-05-09T00:03:37.955Z,10.90
2024-05-09T00:06:05.256Z,10.80
2024-05-09T00:08:32.496Z,10.80
2024-05-09T00:11:06.087Z,10.80
2024-05-09T00:13:33.062Z,10.70
2024-05-09T00:16:00.141Z,10.70
2024-05-09T00:18:34.015Z,10.70
2024-05-09T00:21:06.965Z,10.60
2024-05-09T00:23:33.870Z,10.60
2024-05-09T00:26:07.107Z,10.60
2024-05-09T00:28:39.995Z,10.50
2024-05-09T00:31:19.931Z,10.70
2024-05-09T00:33:56.633Z,10.70
2024-05-09T00:36:29.990Z,10.60
2024-05-09T00:38:56.801Z,10.60
2024-05-09T00:41:23.963Z,10.60
2024-05-09T00:43:56.974Z,10.60
2024-05-09T00:46:23.904Z,10.60
2024-05-09T00:48:51.002Z,10.70
2024-05-09T00:51:24.952Z,10.70
2024-05-09T00:53:51.885Z,10.70
2024-05-09T00:56:28.057Z,10.70
2024-05-09T00:58:55.506Z,10.70
2024-05-09T01:01:29.984Z,12.90
2024-05-09T01:03:57.049Z,10.70
2024-05-09T01:06:31.003Z,10.70
2024-05-09T01:08:57.936Z,10.70
2024-05-09T01:11:24.836Z,10.70
2024-05-09T01:13:58.033Z,10.70
2024-05-09T01:16:24.999Z,10.80
2024-05-09T01:18:58.052Z,11.90
2024-05-09T01:21:25.319Z,10.80
2024-05-09T01:23:59.042Z,10.80
2024-05-09T01:26:25.944Z,10.80
2024-05-09T01:29:06.010Z,10.80
2024-05-09T01:31:39.499Z,10.70
2024-05-09T01:34:18.993Z,10.70
2024-05-09T01:36:51.989Z,10.70
2024-05-09T01:39:18.844Z,10.70
2024-05-09T01:41:51.989Z,10.70
2024-05-09T01:44:18.855Z,10.70
2024-05-09T01:46:52.097Z,10.70
2024-05-09T01:49:19.246Z,10.80
2024-05-09T01:51:46.287Z,10.80
2024-05-09T01:54:19.997Z,10.80
2024-05-09T01:56:53.552Z,12.40
2024-05-09T01:59:27.184Z,10.80
2024-05-09T02:01:56.994Z,11.50
2024-05-09T02:04:24.783Z,10.80
2024-05-09T02:06:58.023Z,10.80
2024-05-09T02:09:25.813Z,10.80
2024-05-09T02:12:07.311Z,10.80
2024-05-09T02:14:34.186Z,10.80
2024-05-09T02:17:01.145Z,10.80
2024-05-09T02:19:35.336Z,10.80
2024-05-09T02:22:02.175Z,10.80
2024-05-09T02:24:36.052Z,10.80
2024-05-09T02:27:02.885Z,10.70
2024-05-09T02:29:50.059Z,11.10
2024-05-09T02:32:17.036Z,10.70
2024-05-09T02:34:58.054Z,10.70
2024-05-09T02:37:24.921Z,10.70
2024-05-09T02:39:51.764Z,10.70
2024-05-09T02:42:25.031Z,10.70
2024-05-09T02:44:51.951Z,10.70
2024-05-09T02:47:25.171Z,10.70
2024-05-09T02:49:52.164Z,10.60
2024-05-09T02:52:19.648Z,10.60
2024-05-09T02:54:53.128Z,10.50
2024-05-09T02:57:26.510Z,10.50
2024-05-09T03:00:00.133Z,10.50
2024-05-09T03:02:27.183Z,10.50
2024-05-09T03:05:01.136Z,10.50
2024-05-09T03:07:27.995Z,10.50
2024-05-09T03:09:54.791Z,10.50
2024-05-09T03:12:28.187Z,10.50
2024-05-09T03:14:54.988Z,10.50
2024-05-09T03:17:24.104Z,10.50
2024-05-09T03:19:58.113Z,10.50
2024-05-09T03:22:25.938Z,10.50
2024-05-09T03:24:59.092Z,10.50
2024-05-09T03:27:26.001Z,10.50
2024-05-09T03:30:07.536Z,10.50
2024-05-09T03:32:34.572Z,10.50
2024-05-09T03:35:14.155Z,10.50
2024-05-09T03:37:40.954Z,10.50
2024-05-09T03:40:14.460Z,10.50
2024-05-09T03:42:51.234Z,10.50
2024-05-09T03:45:18.099Z,10.50
2024-05-09T03:47:45.121Z,10.50
2024-05-09T03:50:26.076Z,10.50
2024-05-09T03:53:07.071Z,10.50
2024-05-09T03:55:40.244Z,10.50
2024-05-09T03:58:14.607Z,10.40
2024-05-09T04:00:49.157Z,10.60
2024-05-09T04:03:16.379Z,10.40
2024-05-09T04:05:44.579Z,10.50
2024-05-09T04:08:18.168Z,10.40
2024-05-09T04:10:45.701Z,10.40
2024-05-09T04:13:12.848Z,10.40
2024-05-09T04:15:46.082Z,10.40
2024-05-09T04:18:13.021Z,10.40
2024-05-09T04:20:46.166Z,10.50
2024-05-09T04:23:14.797Z,10.50
2024-05-09T04:25:44.053Z,10.50
2024-05-09T04:28:18.091Z,10.50
2024-05-09T04:30:51.203Z,10.50
2024-05-09T04:33:31.344Z,10.50
2024-05-09T04:35:58.303Z,10.50
2024-05-09T04:38:25.191Z,10.60
2024-05-09T04:40:58.210Z,10.60
2024-05-09T04:43:25.092Z,10.60
2024-05-09T04:45:58.188Z,10.60
2024-05-09T04:48:25.175Z,10.60
2024-05-09T04:50:52.185Z,10.60
2024-05-09T04:53:26.150Z,10.50
2024-05-09T04:55:53.063Z,10.50
2024-05-09T04:58:33.133Z,10.50
2024-05-09T05:00:59.996Z,10.50
2024-05-09T05:03:33.277Z,11.60
2024-05-09T05:06:00.187Z,10.50
2024-05-09T05:08:33.249Z,10.50
2024-05-09T05:11:00.756Z,10.60
2024-05-09T05:13:41.751Z,10.60
2024-05-09T05:16:08.646Z,10.60
2024-05-09T05:18:35.567Z,10.60
2024-05-09T05:21:09.272Z,10.60
2024-05-09T05:23:36.417Z,10.60
2024-05-09T05:26:10.186Z,10.70
2024-05-09T05:28:37.057Z,10.80
2024-05-09T05:31:17.287Z,10.80
2024-05-09T05:33:44.260Z,10.70
2024-05-09T05:36:18.158Z,10.70
2024-05-09T05:38:51.811Z,10.70
2024-05-09T05:41:25.164Z,10.80
2024-05-09T05:43:58.266Z,10.80
2024-05-09T05:46:25.140Z,10.90
2024-05-09T05:48:58.265Z,11.00
2024-05-09T05:51:25.155Z,11.00
2024-05-09T05:53:59.151Z,11.10
2024-05-09T05:56:27.603Z,13.00
2024-05-09T05:58:54.590Z,11.00
2024-05-09T06:01:28.249Z,11.00
2024-05-09T06:03:55.209Z,11.00
2024-05-09T06:06:28.178Z,11.00
2024-05-09T06:08:55.088Z,11.00
2024-05-09T06:11:28.273Z,11.10
2024-05-09T06:13:55.162Z,11.10
2024-05-09T06:16:28.248Z,11.20
2024-05-09T06:18:55.109Z,11.10
2024-05-09T06:21:22.121Z,11.10
2024-05-09T06:23:56.187Z,11.10
2024-05-09T06:26:23.159Z,11.10
2024-05-09T06:28:56.207Z,11.10
2024-05-09T06:31:29.313Z,11.10
2024-05-09T06:34:02.391Z,11.10
2024-05-09T06:36:29.266Z,11.20
2024-05-09T06:39:09.213Z,11.10
2024-05-09T06:41:36.393Z,11.10
2024-05-09T06:44:03.268Z,11.10
2024-05-09T06:46:36.186Z,11.20
2024-05-09T06:49:08.158Z,11.20
2024-05-09T06:51:45.201Z,11.20
2024-05-09T06:54:12.435Z,11.40
2024-05-09T06:56:46.313Z,11.30
2024-05-09T06:59:13.229Z,11.30
2024-05-09T07:01:40.097Z,11.20
2024-05-09T07:04:13.472Z,11.30
2024-05-09T07:06:40.376Z,11.30
2024-05-09T07:09:13.273Z,11.30
2024-05-09T07:11:40.336Z,11.40
2024-05-09T07:14:07.421Z,11.40
2024-05-09T07:16:41.254Z,11.50
2024-05-09T07:19:09.544Z,11.50
2024-05-09T07:21:36.799Z,11.60
2024-05-09T07:24:10.323Z,11.60
2024-05-09T07:26:37.292Z,11.80
2024-05-09T07:29:04.305Z,11.90
2024-05-09T07:31:38.272Z,12.00
2024-05-09T07:34:11.315Z,12.20
2024-05-09T07:36:38.327Z,12.30
2024-05-09T07:39:18.293Z,12.30
2024-05-09T07:41:45.202Z,12.30
2024-05-09T07:44:12.086Z,12.20
2024-05-09T07:47:47.974Z,12.30
2024-05-09T07:54:38.171Z,12.70
2024-05-09T07:57:05.426Z,12.90
2024-05-09T07:59:39.257Z,12.90
2024-05-09T08:02:13.061Z,12.80
2024-05-09T08:04:46.340Z,12.80
2024-05-09T08:07:13.328Z,12.80
2024-05-09T08:09:46.309Z,12.70
2024-05-09T08:12:20.235Z,12.50
2024-05-09T08:14:47.187Z,12.40
2024-05-09T08:17:20.332Z,12.30
2024-05-09T08:19:47.932Z,12.30
2024-05-09T08:22:15.408Z,12.30
2024-05-09T08:24:49.313Z,12.20
2024-05-09T08:27:16.157Z,12.30
2024-05-09T08:29:50.319Z,12.30
2024-05-09T08:32:23.499Z,12.20
2024-05-09T08:34:57.445Z,12.30
2024-05-09T08:37:27.841Z,12.30
2024-05-09T08:40:16.915Z,12.20
2024-05-09T08:42:52.763Z,12.10
2024-05-09T08:45:26.386Z,12.00
2024-05-09T08:48:01.561Z,12.00
2024-05-09T08:50:36.059Z,12.00
2024-05-09T08:53:12.368Z,12.10
2024-05-09T08:55:43.036Z,12.10
2024-05-09T08:58:22.323Z,12.20
2024-05-09T09:00:57.425Z,12.20
2024-05-09T09:03:36.715Z,12.20
2024-05-09T09:06:10.479Z,12.30
2024-05-09T09:08:47.376Z,12.30
2024-05-09T09:11:14.292Z,12.30
2024-05-09T09:13:41.172Z,12.40
2024-05-09T09:16:14.409Z,12.40
2024-05-09T09:18:44.998Z,12.30
2024-05-09T09:21:12.112Z,12.20
2024-05-09T09:24:00.385Z,12.20
2024-05-09T09:26:33.815Z,12.10
2024-05-09T09:29:10.309Z,12.10
2024-05-09T09:31:50.386Z,12.10
2024-05-09T09:34:17.321Z,12.20
2024-05-09T09:36:44.721Z,12.00
2024-05-09T09:39:21.319Z,12.00
2024-05-09T09:41:48.621Z,12.10
2024-05-09T09:44:23.319Z,12.10
2024-05-09T09:46:51.575Z,12.20
2024-05-09T09:49:19.336Z,12.30
2024-05-09T09:51:53.361Z,12.30
2024-05-09T09:54:21.605Z,12.40
2024-05-09T09:56:55.354Z,12.40
2024-05-09T09:59:22.531Z,12.40
2024-05-09T10:02:02.582Z,12.50
2024-05-09T10:04:30.915Z,12.40
2024-05-09T10:07:09.541Z,12.40
2024-05-09T10:09:36.638Z,12.30
2024-05-09T10:12:20.503Z,12.30
2024-05-09T10:14:53.496Z,12.30
2024-05-09T10:17:27.553Z,12.30
2024-05-09T10:20:14.758Z,12.30
2024-05-09T10:22:57.367Z,12.30
2024-05-09T10:25:31.409Z,12.40
2024-05-09T10:27:58.451Z,12.40
2024-05-09T10:30:39.413Z,12.40
2024-05-09T10:33:13.018Z,12.40
2024-05-09T10:35:56.703Z,12.40
2024-05-09T10:38:24.110Z,13.40
2024-05-09T10:41:06.402Z,14.30
2024-05-09T10:43:33.976Z,12.50
2024-05-09T10:46:01.033Z,12.50
2024-05-09T10:48:34.490Z,12.60
2024-05-09T10:51:01.495Z,12.60
2024-05-09T10:53:34.363Z,12.70
2024-05-09T10:56:02.023Z,12.70
2024-05-09T10:58:35.426Z,12.70
2024-05-09T11:01:05.651Z,12.80
2024-05-09T11:03:47.722Z,12.90
2024-05-09T11:06:15.766Z,12.90
2024-05-09T11:08:43.897Z,12.90
2024-05-09T11:11:17.558Z,12.90
2024-05-09T11:13:44.554Z,12.90
2024-05-09T11:16:26.488Z,13.00
2024-05-09T11:18:56.092Z,13.00
2024-05-09T11:21:24.256Z,13.00
2024-05-09T11:23:58.500Z,13.10
2024-05-09T11:26:28.118Z,13.10
2024-05-09T11:28:55.188Z,13.10
2024-05-09T11:31:28.557Z,13.10
2024-05-09T11:34:08.432Z,13.10
2024-05-09T11:36:41.441Z,13.20
2024-05-09T11:39:08.934Z,13.20
2024-05-09T11:41:48.431Z,13.30
2024-05-09T11:44:15.286Z,13.40
2024-05-09T11:46:43.588Z,13.40
2024-05-09T11:49:17.664Z,13.50
2024-05-09T11:51:44.613Z,13.60
2024-05-09T11:54:11.528Z,14.70
2024-05-09T11:56:44.415Z,13.70
2024-05-09T11:59:18.469Z,13.80
2024-05-09T12:01:45.490Z,13.80
2024-05-09T12:04:25.628Z,13.90
2024-05-09T12:06:52.756Z,13.80
2024-05-09T12:09:19.624Z,13.80
2024-05-09T12:11:52.492Z,13.90
2024-05-09T12:14:19.337Z,14.80
2024-05-09T12:16:52.499Z,13.80
2024-05-09T12:19:19.389Z,13.80
2024-05-09T12:21:46.286Z,13.80
2024-05-09T12:24:19.497Z,13.90
2024-05-09T12:26:46.404Z,13.90
2024-05-09T12:29:13.214Z,13.90
2024-05-09T12:31:46.455Z,14.00
2024-05-09T12:34:20.566Z,14.00
2024-05-09T12:36:47.735Z,14.00
2024-05-09T12:39:21.499Z,14.10
2024-05-09T12:41:48.333Z,14.20
2024-05-09T12:44:28.489Z,16.00
2024-05-09T12:46:55.454Z,14.30
2024-05-09T12:49:24.410Z,14.40
2024-05-09T12:52:04.737Z,14.30
2024-05-09T12:54:33.530Z,14.30
2024-05-09T12:57:00.569Z,14.20
2024-05-09T12:59:34.508Z,14.20
2024-05-09T13:02:07.682Z,14.20
2024-05-09T13:04:41.771Z,14.30
2024-05-09T13:07:15.558Z,14.30
2024-05-09T13:09:49.557Z,14.40
2024-05-09T13:12:16.374Z,14.50
2024-05-09T13:14:43.169Z,14.30
2024-05-09T13:17:16.721Z,14.70
2024-05-09T13:19:43.620Z,14.30
2024-05-09T13:22:17.560Z,14.30
2024-05-09T13:24:44.417Z,14.30
2024-05-09T13:27:11.292Z,14.30
2024-05-09T13:29:44.642Z,14.30
2024-05-09T13:32:17.572Z,14.20
2024-05-09T13:34:44.565Z,14.20
2024-05-09T13:37:17.520Z,14.20
2024-05-09T13:39:44.339Z,14.10
2024-05-09T13:42:17.568Z,14.20
2024-05-09T13:44:51.071Z,14.10
2024-05-09T13:47:24.646Z,14.10
2024-05-09T13:49:51.866Z,14.20
2024-05-09T13:52:18.975Z,14.20
2024-05-09T13:54:52.562Z,14.30
2024-05-09T13:57:19.595Z,14.30
2024-05-09T13:59:52.518Z,14.30
2024-05-09T14:02:19.636Z,14.30
2024-05-09T14:04:46.769Z,14.30
2024-05-09T14:07:20.599Z,14.30
2024-05-09T14:09:47.637Z,14.40
2024-05-09T14:12:14.463Z,14.50
2024-05-09T14:14:47.531Z,14.50
2024-05-09T14:17:20.547Z,14.50
2024-05-09T14:19:47.420Z,14.60
2024-05-09T14:22:20.582Z,14.50
2024-05-09T14:24:47.458Z,14.50
2024-05-09T14:27:14.333Z,14.50
2024-05-09T14:29:48.514Z,14.60
2024-05-09T14:32:22.711Z,14.30
2024-05-09T14:34:56.779Z,14.30
2024-05-09T14:37:23.677Z,14.20
2024-05-09T14:39:50.523Z,14.10
2024-05-09T14:42:23.535Z,14.20
2024-05-09T14:44:57.250Z,14.10
2024-05-09T14:47:30.637Z,14.20
2024-05-09T14:49:57.644Z,14.20
2024-05-09T14:52:24.809Z,14.20
2024-05-09T14:55:00.900Z,14.10
2024-05-09T14:57:34.612Z,16.90
2024-05-09T15:00:14.093Z,14.10
2024-05-09T15:02:51.684Z,14.00
2024-05-09T15:05:18.885Z,13.90
2024-05-09T15:07:45.910Z,13.80
2024-05-09T15:10:26.998Z,13.70
2024-05-09T15:13:01.218Z,13.60
2024-05-09T15:15:34.616Z,13.50
2024-05-09T15:18:01.725Z,13.40
2024-05-09T15:20:37.154Z,13.40
2024-05-09T15:23:06.211Z,13.30
2024-05-09T15:25:40.722Z,13.20
2024-05-09T15:28:08.293Z,13.20
2024-05-09T15:30:48.818Z,13.10
2024-05-09T15:33:15.835Z,13.10
2024-05-09T15:35:42.797Z,13.00
2024-05-09T15:38:16.786Z,13.00
2024-05-09T15:40:44.036Z,12.90
2024-05-09T15:43:11.791Z,12.90
2024-05-09T15:45:51.792Z,12.80
2024-05-09T15:48:19.274Z,12.80
2024-05-09T15:50:52.664Z,12.80
2024-05-09T15:53:22.359Z,12.80
2024-05-09T15:55:55.695Z,12.80
2024-05-09T15:58:22.887Z,12.80
2024-05-09T16:00:56.918Z,12.80
2024-05-09T16:03:23.866Z,12.80
2024-05-09T16:05:51.911Z,12.80
2024-05-09T16:08:25.596Z,12.80
2024-05-09T16:10:52.610Z,12.80
2024-05-09T16:13:25.624Z,12.80
2024-05-09T16:15:52.662Z,12.70
2024-05-09T16:18:26.720Z,12.80
2024-05-09T16:20:59.601Z,12.70
2024-05-09T16:23:33.664Z,12.70
2024-05-09T16:26:00.665Z,12.70
2024-05-09T16:28:27.534Z,12.70
2024-05-09T16:31:00.764Z,12.70
2024-05-09T16:33:34.840Z,12.60
2024-05-09T16:36:08.626Z,12.60
2024-05-09T16:38:35.515Z,12.60
2024-05-09T16:41:08.623Z,12.50
2024-05-09T16:43:35.432Z,12.50
2024-05-09T16:46:15.696Z,12.50
2024-05-09T16:48:45.713Z,12.50
2024-05-09T16:51:12.818Z,12.40
2024-05-09T16:53:45.667Z,12.40
2024-05-09T16:56:12.940Z,12.40
2024-05-09T16:58:40.239Z,12.40
2024-05-09T17:01:13.835Z,12.40
2024-05-09T17:03:41.061Z,12.40
2024-05-09T17:06:09.935Z,12.50
2024-05-09T17:08:48.087Z,12.40
2024-05-09T17:11:22.142Z,12.40
2024-05-09T17:13:49.488Z,12.30
2024-05-09T17:16:18.100Z,12.30
2024-05-09T17:18:52.697Z,12.30
2024-05-09T17:21:19.558Z,12.30
2024-05-09T17:23:46.555Z,12.30
2024-05-09T17:26:19.690Z,12.40
2024-05-09T17:28:46.881Z,12.40
2024-05-09T17:31:26.902Z,12.40
2024-05-09T17:34:00.344Z,12.40
2024-05-09T17:36:33.765Z,12.30
2024-05-09T17:39:00.644Z,12.40
2024-05-09T17:41:27.454Z,12.30
2024-05-09T17:44:00.683Z,12.40
2024-05-09T17:46:40.697Z,12.30
2024-05-09T17:49:07.679Z,12.30
2024-05-09T17:51:42.708Z,12.30
2024-05-09T17:54:09.550Z,12.30
2024-05-09T17:56:42.762Z,12.30
2024-05-09T17:59:11.447Z,12.20
2024-05-09T18:01:38.860Z,12.20
2024-05-09T18:04:12.898Z,12.20
2024-05-09T18:06:39.878Z,12.20
2024-05-09T18:09:13.736Z,12.20
2024-05-09T18:11:40.721Z,12.20
2024-05-09T18:14:07.624Z,12.30
2024-05-09T18:16:40.703Z,12.20
2024-05-09T18:19:13.962Z,12.20
2024-05-09T18:21:47.829Z,12.20
2024-05-09T18:24:21.860Z,12.10
2024-05-09T18:26:49.485Z,12.10
2024-05-09T18:29:19.976Z,12.10
2024-05-09T18:31:54.703Z,12.10
2024-05-09T18:34:21.681Z,12.00
2024-05-09T18:36:54.893Z,12.00
2024-05-09T18:39:21.726Z,12.00
2024-05-09T18:41:48.539Z,12.00
2024-05-09T18:44:21.714Z,12.00
2024-05-09T18:46:55.279Z,12.10
2024-05-09T18:49:28.901Z,11.90
2024-05-09T18:51:55.948Z,11.90
2024-05-09T18:54:29.725Z,11.90
2024-05-09T18:56:56.677Z,12.00
2024-05-09T18:59:29.908Z,11.90
2024-05-09T19:01:56.819Z,11.90
2024-05-09T19:04:24.194Z,11.90
2024-05-09T19:06:57.792Z,11.90
2024-05-09T19:09:24.618Z,11.90
2024-05-09T19:11:57.823Z,11.90
2024-05-09T19:14:25.324Z,11.90
2024-05-09T19:16:58.889Z,11.80
2024-05-09T19:19:28.011Z,11.90
2024-05-09T19:21:57.696Z,11.80
2024-05-09T19:24:30.849Z,11.80
2024-05-09T19:26:58.233Z,11.80
2024-05-09T19:29:31.795Z,11.80
2024-05-09T19:32:04.905Z,11.80
2024-05-09T19:34:37.808Z,11.80
2024-05-09T19:37:04.741Z,11.70
2024-05-09T19:39:37.867Z,11.70
2024-05-09T19:42:05.047Z,11.70
2024-05-09T19:44:31.870Z,11.70
2024-05-09T19:47:11.779Z,11.70
2024-05-09T19:49:45.342Z,11.60
2024-05-09T19:52:18.813Z,11.60
2024-05-09T19:54:49.578Z,11.60
2024-05-09T19:57:23.772Z,11.60
2024-05-09T19:59:50.570Z,11.60
2024-05-09T20:02:24.051Z,11.60
2024-05-09T20:04:51.444Z,11.60
2024-05-09T20:07:18.405Z,11.60
2024-05-09T20:09:51.804Z,11.60
2024-05-09T20:12:18.681Z,11.60
2024-05-09T20:14:51.772Z,11.60
2024-05-09T20:17:18.592Z,11.60
2024-05-09T20:19:51.946Z,11.60
2024-05-09T20:22:19.006Z,11.60
2024-05-09T20:24:45.962Z,11.60
2024-05-09T20:27:18.779Z,11.70
2024-05-09T20:29:46.073Z,11.70
2024-05-09T20:32:19.810Z,11.70
2024-05-09T20:34:50.458Z,11.70
2024-05-09T20:37:24.803Z,11.70
2024-05-09T20:39:51.740Z,11.70
2024-05-09T20:42:24.831Z,11.70
2024-05-09T20:44:51.626Z,11.70
2024-05-09T20:47:24.870Z,11.70
2024-05-09T20:49:58.331Z,11.70
2024-05-09T20:52:31.842Z,11.70
2024-05-09T20:55:04.808Z,11.70
2024-05-09T20:57:32.111Z,11.80
2024-05-09T21:00:12.132Z,11.70
2024-05-09T21:02:45.099Z,11.70
2024-05-09T21:05:19.987Z,11.70
2024-05-09T21:07:46.933Z,11.70
2024-05-09T21:10:19.427Z,11.70
2024-05-09T21:12:55.887Z,12.90
2024-05-09T21:15:22.712Z,12.00
2024-05-09T21:17:55.938Z,11.70
2024-05-09T21:20:28.844Z,11.70
2024-05-09T21:23:04.895Z,11.60
2024-05-09T21:25:32.146Z,11.60
2024-05-09T21:27:59.523Z,11.50
2024-05-09T21:30:40.644Z,11.50
2024-05-09T21:33:16.937Z,11.40
2024-05-09T21:35:56.878Z,11.40
2024-05-09T21:38:23.667Z,11.40
2024-05-09T21:40:50.558Z,11.40
2024-05-09T21:43:24.002Z,11.30
2024-05-09T21:45:51.063Z,11.30
2024-05-09T21:48:17.918Z,11.30
2024-05-09T21:50:57.903Z,11.20
2024-05-09T21:53:24.714Z,11.10
2024-05-09T21:55:57.910Z,11.10
2024-05-09T21:58:24.838Z,11.10
2024-05-09T22:00:51.733Z,11.00
2024-05-09T22:03:25.139Z,11.10
2024-05-09T22:05:52.089Z,11.00
2024-05-09T22:08:18.934Z,11.00
2024-05-09T22:10:51.976Z,11.90
2024-05-09T22:13:20.398Z,11.00
2024-05-09T22:15:53.968Z,11.00
2024-05-09T22:18:20.870Z,10.90
2024-05-09T22:20:47.708Z,10.90
2024-05-09T22:23:21.950Z,10.90
2024-05-09T22:25:48.789Z,10.90
2024-05-09T22:28:16.450Z,10.80
2024-05-09T22:30:52.024Z,10.80
2024-05-09T22:33:25.190Z,10.80
2024-05-09T22:35:58.929Z,10.80
2024-05-09T22:38:25.729Z,10.80
2024-05-09T22:40:59.090Z,10.80
2024-05-09T22:43:26.023Z,10.80
2024-05-09T22:45:54.748Z,10.80
2024-05-09T22:48:29.029Z,10.80
2024-05-09T22:51:02.380Z,10.80
2024-05-09T22:53:35.950Z,10.80
2024-05-09T22:56:02.803Z,10.80
2024-05-09T22:58:29.781Z,10.80
2024-05-09T23:01:03.257Z,10.70
2024-05-09T23:03:30.470Z,10.80
2024-05-09T23:05:57.411Z,10.80
2024-05-09T23:08:30.953Z,10.80
2024-05-09T23:10:57.880Z,10.80
2024-05-09T23:13:31.002Z,10.80
2024-05-09T23:15:58.097Z,10.80
2024-05-09T23:18:31.992Z,10.80
2024-05-09T23:21:00.669Z,10.80
2024-05-09T23:23:33.948Z,10.80
2024-05-09T23:26:00.742Z,10.80
2024-05-09T23:28:27.818Z,10.80
2024-05-09T23:31:00.990Z,13.10
2024-05-09T23:33:34.055Z,10.80
2024-05-09T23:36:07.909Z,10.80
2024-05-09T23:38:34.706Z,10.80
2024-05-09T23:41:08.023Z,10.80
2024-05-09T23:43:36.338Z,10.70
2024-05-09T23:46:10.016Z,10.80
2024-05-09T23:48:36.959Z,10.70
2024-05-09T23:51:16.950Z,10.70
2024-05-09T23:53:56.965Z,10.70
2024-05-09T23:56:29.931Z,10.70
2024-05-09T23:59:02.966Z,10.70
